^^
Saratoga-Weather Station Historical Data
Daily Summary for February 12, 2020 Units:  Both    English   Metric
Daily Weekly Monthly Yearly Custom
  High: Low: Average:
Temperature: 80.8 °F /  27.1 °C 52.2 °F /  11.2 °C 65.8 °F /  18.8 °C
Dew Point: 59.4 °F /  15.2 °C 50.4 °F /  10.2 °C 54.1 °F /  12.3 °C
Humidity: 95% 42% 69%
Wind Speed: 11mph /  17.7km/h - 1.7mph /  2.7km/h
Wind Gust: 12mph /  19.3km/h - -
Wind- - WSW
Pressure: 30.2 in /  1022.4 hPa 30 in /  1015.9 hPa -
Precipitation: 0 in /  0.0 mm    
Historical Graphs
 
 
Tabular Data for February 12, 2020
Time Temperature Dew Point Pressure Wind Wind Speed Wind Gust Humidity Rainfall Rate (Hourly) solar
00:00 59.5 °F /  15.3 °C 53.1 °F /  11.7 °C 30in /  1015.9hPa Calm     79% 0in /  0.0mm 0 W/m2
00:05 59.4 °F /  15.2 °C 53.2 °F /  11.8 °C 30in /  1015.9hPa Calm     80% 0in /  0.0mm 0 W/m2
00:10 59.4 °F /  15.2 °C 53.2 °F /  11.8 °C 30in /  1015.9hPa Calm     80% 0in /  0.0mm 0 W/m2
00:15 59.2 °F /  15.1 °C 53.1 °F /  11.7 °C 30in /  1015.9hPa Calm     80% 0in /  0.0mm 0 W/m2
00:20 59 °F /  15 °C 52.9 °F /  11.6 °C 30in /  1015.9hPa Calm     80% 0in /  0.0mm 0 W/m2
00:25 58.6 °F /  14.8 °C 52.9 °F /  11.6 °C 30in /  1015.9hPa Calm     81% 0in /  0.0mm 0 W/m2
00:30 58.6 °F /  14.8 °C 52.9 °F /  11.6 °C 30in /  1015.9hPa Calm     81% 0in /  0.0mm 0 W/m2
00:35 58.5 °F /  14.7 °C 52.7 °F /  11.5 °C 30in /  1015.9hPa Calm     81% 0in /  0.0mm 0 W/m2
00:40 58.3 °F /  14.6 °C 52.5 °F /  11.4 °C 30in /  1015.9hPa Calm     81% 0in /  0.0mm 0 W/m2
00:45 58.3 °F /  14.6 °C 52.9 °F /  11.6 °C 30in /  1015.9hPa Calm     82% 0in /  0.0mm 0 W/m2
00:50 58.3 °F /  14.6 °C 52.9 °F /  11.6 °C 30in /  1015.9hPa Calm     82% 0in /  0.0mm 0 W/m2
00:55 58.1 °F /  14.5 °C 52.7 °F /  11.5 °C 30in /  1015.9hPa Calm     82% 0in /  0.0mm 0 W/m2
01:00 57.9 °F /  14.4 °C 52.5 °F /  11.4 °C 30in /  1015.9hPa Calm     82% 0in /  0.0mm 0 W/m2
01:05 57.7 °F /  14.3 °C 52.7 °F /  11.5 °C 30in /  1015.9hPa Calm     83% 0in /  0.0mm 0 W/m2
01:10 57.6 °F /  14.2 °C 52.5 °F /  11.4 °C 30in /  1015.9hPa Calm     83% 0in /  0.0mm 0 W/m2
01:15 57.6 °F /  14.2 °C 52.7 °F /  11.5 °C 30in /  1015.9hPa Calm     84% 0in /  0.0mm 0 W/m2
01:20 57.4 °F /  14.1 °C 52.5 °F /  11.4 °C 30in /  1015.9hPa Calm     84% 0in /  0.0mm 0 W/m2
01:25 57.2 °F /  14 °C 52.3 °F /  11.3 °C 30in /  1015.9hPa Calm     84% 0in /  0.0mm 0 W/m2
01:30 57 °F /  13.9 °C 52.5 °F /  11.4 °C 30in /  1015.9hPa Calm     85% 0in /  0.0mm 0 W/m2
01:35 57 °F /  13.9 °C 52.5 °F /  11.4 °C 30in /  1015.9hPa Calm     85% 0in /  0.0mm 0 W/m2
01:40 56.8 °F /  13.8 °C 52.3 °F /  11.3 °C 30in /  1015.9hPa Calm     85% 0in /  0.0mm 0 W/m2
01:45 56.8 °F /  13.8 °C 52.3 °F /  11.3 °C 30in /  1015.9hPa Calm     85% 0in /  0.0mm 0 W/m2
01:50 56.8 °F /  13.8 °C 52.3 °F /  11.3 °C 30in /  1015.9hPa Calm     85% 0in /  0.0mm 0 W/m2
01:55 56.7 °F /  13.7 °C 52.5 °F /  11.4 °C 30in /  1015.9hPa Calm     86% 0in /  0.0mm 0 W/m2
02:00 56.5 °F /  13.6 °C 52.3 °F /  11.3 °C 30in /  1015.9hPa Calm     86% 0in /  0.0mm 0 W/m2
02:05 56.5 °F /  13.6 °C 52.3 °F /  11.3 °C 30in /  1015.9hPa Calm     86% 0in /  0.0mm 0 W/m2
02:10 56.1 °F /  13.4 °C 52 °F /  11.1 °C 30in /  1015.9hPa Calm     86% 0in /  0.0mm 0 W/m2
02:16 56.1 °F /  13.4 °C 52 °F /  11.1 °C 30in /  1015.9hPa Calm     86% 0in /  0.0mm 0 W/m2
02:21 55.9 °F /  13.3 °C 52.2 °F /  11.2 °C 30in /  1016.3hPa Calm     87% 0in /  0.0mm 0 W/m2
02:26 55.9 °F /  13.3 °C 52.2 °F /  11.2 °C 30in /  1015.9hPa Calm     87% 0in /  0.0mm 0 W/m2
02:31 55.8 °F /  13.2 °C 52 °F /  11.1 °C 30in /  1015.9hPa Calm     87% 0in /  0.0mm 0 W/m2
02:36 55.8 °F /  13.2 °C 52 °F /  11.1 °C 30in /  1016.3hPa Calm     87% 0in /  0.0mm 0 W/m2
02:41 55.8 °F /  13.2 °C 52 °F /  11.1 °C 30in /  1016.3hPa Calm     87% 0in /  0.0mm 0 W/m2
02:46 55.6 °F /  13.1 °C 51.8 °F /  11 °C 30in /  1016.3hPa Calm     87% 0in /  0.0mm 0 W/m2
02:51 55.4 °F /  13 °C 52 °F /  11.1 °C 30in /  1016.3hPa Calm     88% 0in /  0.0mm 0 W/m2
02:56 55.2 °F /  12.9 °C 51.8 °F /  11 °C 30in /  1016.3hPa Calm     88% 0in /  0.0mm 0 W/m2
03:01 55.2 °F /  12.9 °C 51.8 °F /  11 °C 30in /  1016.3hPa Calm     88% 0in /  0.0mm 0 W/m2
03:06 55 °F /  12.8 °C 51.6 °F /  10.9 °C 30in /  1016.3hPa Calm     88% 0in /  0.0mm 0 W/m2
03:11 55 °F /  12.8 °C 51.8 °F /  11 °C 30in /  1016.3hPa Calm     89% 0in /  0.0mm 0 W/m2
03:17 54.9 °F /  12.7 °C 51.6 °F /  10.9 °C 30in /  1016.3hPa Calm     89% 0in /  0.0mm 0 W/m2
03:22 54.9 °F /  12.7 °C 51.6 °F /  10.9 °C 30in /  1016.3hPa Calm     89% 0in /  0.0mm 0 W/m2
03:27 54.7 °F /  12.6 °C 51.4 °F /  10.8 °C 30in /  1016.3hPa Calm     89% 0in /  0.0mm 0 W/m2
03:32 54.7 °F /  12.6 °C 51.8 °F /  11 °C 30in /  1016.3hPa Calm     90% 0in /  0.0mm 0 W/m2
03:37 54.7 °F /  12.6 °C 51.8 °F /  11 °C 30in /  1016.3hPa Calm     90% 0in /  0.0mm 0 W/m2
03:42 54.7 °F /  12.6 °C 51.8 °F /  11 °C 30in /  1016.3hPa Calm     90% 0in /  0.0mm 0 W/m2
03:47 54.7 °F /  12.6 °C 51.8 °F /  11 °C 30in /  1016.3hPa Calm     90% 0in /  0.0mm 0 W/m2
03:52 54.7 °F /  12.6 °C 51.8 °F /  11 °C 30in /  1016.3hPa Calm     90% 0in /  0.0mm 0 W/m2
03:57 54.7 °F /  12.6 °C 51.8 °F /  11 °C 30in /  1016.3hPa Calm     90% 0in /  0.0mm 0 W/m2
04:02 54.7 °F /  12.6 °C 51.8 °F /  11 °C 30in /  1016.3hPa Calm     90% 0in /  0.0mm 0 W/m2
04:07 54.3 °F /  12.4 °C 51.4 °F /  10.8 °C 30in /  1016.3hPa Calm     90% 0in /  0.0mm 0 W/m2
04:12 54.3 °F /  12.4 °C 51.8 °F /  11 °C 30in /  1016.3hPa Calm     91% 0in /  0.0mm 0 W/m2
04:17 54.3 °F /  12.4 °C 51.8 °F /  11 °C 30in /  1016.3hPa Calm     91% 0in /  0.0mm 0 W/m2
04:22 54.3 °F /  12.4 °C 51.8 °F /  11 °C 30in /  1016.3hPa Calm     91% 0in /  0.0mm 0 W/m2
04:27 54.3 °F /  12.4 °C 51.8 °F /  11 °C 30in /  1016.3hPa Calm     91% 0in /  0.0mm 0 W/m2
04:32 54.1 °F /  12.3 °C 51.6 °F /  10.9 °C 30in /  1016.3hPa Calm     91% 0in /  0.0mm 0 W/m2
04:37 54.1 °F /  12.3 °C 51.6 °F /  10.9 °C 30in /  1016.3hPa Calm     91% 0in /  0.0mm 0 W/m2
04:42 54.1 °F /  12.3 °C 51.6 °F /  10.9 °C 30in /  1016.3hPa Calm     91% 0in /  0.0mm 0 W/m2
04:47 54.1 °F /  12.3 °C 51.6 °F /  10.9 °C 30in /  1016.3hPa Calm     91% 0in /  0.0mm 0 W/m2
04:52 54.1 °F /  12.3 °C 51.6 °F /  10.9 °C 30in /  1016.3hPa Calm     91% 0in /  0.0mm 0 W/m2
04:58 54.1 °F /  12.3 °C 51.6 °F /  10.9 °C 30in /  1016.3hPa Calm     91% 0in /  0.0mm 0 W/m2
05:03 54 °F /  12.2 °C 51.4 °F /  10.8 °C 30in /  1016.3hPa Calm     91% 0in /  0.0mm 0 W/m2
05:08 54 °F /  12.2 °C 51.4 °F /  10.8 °C 30in /  1016.3hPa Calm     91% 0in /  0.0mm 0 W/m2
05:13 53.8 °F /  12.1 °C 51.3 °F /  10.7 °C 30in /  1016.3hPa Calm     91% 0in /  0.0mm 0 W/m2
05:18 53.8 °F /  12.1 °C 51.3 °F /  10.7 °C 30in /  1016.3hPa Calm     91% 0in /  0.0mm 0 W/m2
05:23 53.8 °F /  12.1 °C 51.4 °F /  10.8 °C 30in /  1016.3hPa Calm     92% 0in /  0.0mm 0 W/m2
05:28 53.8 °F /  12.1 °C 51.4 °F /  10.8 °C 30in /  1016.3hPa Calm     92% 0in /  0.0mm 0 W/m2
05:33 53.8 °F /  12.1 °C 51.4 °F /  10.8 °C 30in /  1016.3hPa Calm     92% 0in /  0.0mm 0 W/m2
05:38 53.8 °F /  12.1 °C 51.4 °F /  10.8 °C 30in /  1016.3hPa Calm     92% 0in /  0.0mm 0 W/m2
05:43 53.4 °F /  11.9 °C 51.1 °F /  10.6 °C 30in /  1016.3hPa Calm     92% 0in /  0.0mm 0 W/m2
05:48 53.4 °F /  11.9 °C 51.1 °F /  10.6 °C 30in /  1016.3hPa Calm     92% 0in /  0.0mm 0 W/m2
05:53 53.2 °F /  11.8 °C 50.9 °F /  10.5 °C 30in /  1016.3hPa Calm     92% 0in /  0.0mm 0 W/m2
05:58 53.2 °F /  11.8 °C 50.9 °F /  10.5 °C 30in /  1016.3hPa Calm     92% 0in /  0.0mm 0 W/m2
06:03 53.1 °F /  11.7 °C 50.7 °F /  10.4 °C 30in /  1016.3hPa Calm     92% 0in /  0.0mm 0 W/m2
06:08 52.9 °F /  11.6 °C 50.5 °F /  10.3 °C 30in /  1016.3hPa Calm     92% 0in /  0.0mm 0 W/m2
06:13 52.7 °F /  11.5 °C 50.4 °F /  10.2 °C 30in /  1016.3hPa Calm     92% 0in /  0.0mm 0 W/m2
06:18 52.9 °F /  11.6 °C 50.9 °F /  10.5 °C 30in /  1016.3hPa Calm     93% 0in /  0.0mm 0 W/m2
06:23 52.7 °F /  11.5 °C 50.7 °F /  10.4 °C 30in /  1016.3hPa Calm     93% 0in /  0.0mm 0 W/m2
06:29 52.5 °F /  11.4 °C 50.5 °F /  10.3 °C 30in /  1016.3hPa Calm     93% 0in /  0.0mm 0 W/m2
06:34 52.5 °F /  11.4 °C 50.5 °F /  10.3 °C 30in /  1016.3hPa Calm     93% 0in /  0.0mm 0 W/m2
06:39 52.3 °F /  11.3 °C 50.4 °F /  10.2 °C 30in /  1016.6hPa Calm     93% 0in /  0.0mm 0 W/m2
06:44 52.3 °F /  11.3 °C 50.4 °F /  10.2 °C 30in /  1016.6hPa Calm     93% 0in /  0.0mm 0 W/m2
06:49 52.3 °F /  11.3 °C 50.4 °F /  10.2 °C 30in /  1016.6hPa Calm     93% 0in /  0.0mm 0 W/m2
06:54 52.3 °F /  11.3 °C 50.4 °F /  10.2 °C 30in /  1016.6hPa Calm     93% 0in /  0.0mm 0 W/m2
06:59 52.3 °F /  11.3 °C 50.7 °F /  10.4 °C 30in /  1016.6hPa Calm     94% 0in /  0.0mm 0 W/m2
07:04 52.5 °F /  11.4 °C 50.9 °F /  10.5 °C 30in /  1016.6hPa Calm     94% 0in /  0.0mm 0 W/m2
07:09 52.5 °F /  11.4 °C 50.9 °F /  10.5 °C 30in /  1016.6hPa Calm     94% 0in /  0.0mm 0 W/m2
07:14 52.5 °F /  11.4 °C 50.9 °F /  10.5 °C 30in /  1016.6hPa Calm     94% 0in /  0.0mm 5 W/m2
07:19 52.3 °F /  11.3 °C 50.7 °F /  10.4 °C 30in /  1016.6hPa Calm     94% 0in /  0.0mm 7 W/m2
07:24 52.3 °F /  11.3 °C 50.7 °F /  10.4 °C 30in /  1016.6hPa Calm     94% 0in /  0.0mm 9 W/m2
07:29 52.3 °F /  11.3 °C 50.7 °F /  10.4 °C 30in /  1016.6hPa Calm     94% 0in /  0.0mm 12 W/m2
07:34 52.2 °F /  11.2 °C 50.5 °F /  10.3 °C 30in /  1016.9hPa Calm     94% 0in /  0.0mm 16 W/m2
07:39 52.2 °F /  11.2 °C 50.5 °F /  10.3 °C 30in /  1016.9hPa Calm     94% 0in /  0.0mm 18 W/m2
07:44 52.2 °F /  11.2 °C 50.5 °F /  10.3 °C 30in /  1016.9hPa Calm     94% 0in /  0.0mm 21 W/m2
07:49 52.3 °F /  11.3 °C 50.7 °F /  10.4 °C 30in /  1016.9hPa Calm     94% 0in /  0.0mm 25 W/m2
07:54 52.3 °F /  11.3 °C 50.9 °F /  10.5 °C 30in /  1016.9hPa Calm     95% 0in /  0.0mm 26 W/m2
07:59 52.5 °F /  11.4 °C 51.1 °F /  10.6 °C 30in /  1016.9hPa Calm     95% 0in /  0.0mm 30 W/m2
08:04 52.5 °F /  11.4 °C 50.9 °F /  10.5 °C 30in /  1016.9hPa Calm     94% 0in /  0.0mm 33 W/m2
08:09 52.5 °F /  11.4 °C 50.9 °F /  10.5 °C 30in /  1017.3hPa Calm     94% 0in /  0.0mm 37 W/m2
08:14 52.7 °F /  11.5 °C 51.3 °F /  10.7 °C 30in /  1017.3hPa Calm     95% 0in /  0.0mm 40 W/m2
08:19 52.9 °F /  11.6 °C 51.4 °F /  10.8 °C 30in /  1017.3hPa Calm     95% 0in /  0.0mm 42 W/m2
08:24 53.1 °F /  11.7 °C 51.6 °F /  10.9 °C 30in /  1017.3hPa Calm     95% 0in /  0.0mm 47 W/m2
08:29 53.2 °F /  11.8 °C 51.8 °F /  11 °C 30in /  1017.3hPa Calm     95% 0in /  0.0mm 83 W/m2
08:34 53.4 °F /  11.9 °C 52 °F /  11.1 °C 30.1in /  1017.6hPa Calm     95% 0in /  0.0mm 91 W/m2
08:39 53.8 °F /  12.1 °C 52.3 °F /  11.3 °C 30.1in /  1017.6hPa Calm     95% 0in /  0.0mm 104 W/m2
08:44 54 °F /  12.2 °C 52.5 °F /  11.4 °C 30.1in /  1017.6hPa Calm     95% 0in /  0.0mm 116 W/m2
08:50 54.3 °F /  12.4 °C 52.7 °F /  11.5 °C 30.1in /  1017.6hPa Calm     94% 0in /  0.0mm 125 W/m2
08:55 54.9 °F /  12.7 °C 53.2 °F /  11.8 °C 30.1in /  1017.6hPa Calm     94% 0in /  0.0mm 62 W/m2
09:00 55.6 °F /  13.1 °C 53.6 °F /  12 °C 30.1in /  1017.6hPa Calm     93% 0in /  0.0mm 83 W/m2
09:05 55.9 °F /  13.3 °C 53.6 °F /  12 °C 30.1in /  1018.0hPa Calm     92% 0in /  0.0mm 160 W/m2
09:10 56.7 °F /  13.7 °C 54.1 °F /  12.3 °C 30.1in /  1018.0hPa Calm     91% 0in /  0.0mm 171 W/m2
09:15 57 °F /  13.9 °C 54.1 °F /  12.3 °C 30.1in /  1018.0hPa Calm     90% 0in /  0.0mm 178 W/m2
09:20 57.6 °F /  14.2 °C 54.3 °F /  12.4 °C 30.1in /  1018.0hPa Calm     89% 0in /  0.0mm 102 W/m2
09:25 58.1 °F /  14.5 °C 54.5 °F /  12.5 °C 30.1in /  1018.0hPa Calm     88% 0in /  0.0mm 77 W/m2
09:30 58.6 °F /  14.8 °C 54.9 °F /  12.7 °C 30.1in /  1018.0hPa Calm     87% 0in /  0.0mm 79 W/m2
09:35 59.2 °F /  15.1 °C 55 °F /  12.8 °C 30.1in /  1018.0hPa Calm     86% 0in /  0.0mm 83 W/m2
09:40 59.9 °F /  15.5 °C 55 °F /  12.8 °C 30.1in /  1018.0hPa Calm   2mph /  3.2km/h 84% 0in /  0.0mm 84 W/m2
09:45 60.6 °F /  15.9 °C 55.4 °F /  13 °C 30.1in /  1018.0hPa ENE 0.9mph /  1.4km/h 1mph /  1.6km/h 83% 0in /  0.0mm 86 W/m2
09:50 61.2 °F /  16.2 °C 55.2 °F /  12.9 °C 30.1in /  1018.0hPa ENE 0.9mph /  1.4km/h 2mph /  3.2km/h 81% 0in /  0.0mm 88 W/m2
09:55 61.3 °F /  16.3 °C 55 °F /  12.8 °C 30.1in /  1018.0hPa East 2mph /  3.2km/h 2mph /  3.2km/h 80% 0in /  0.0mm 91 W/m2
10:00 61.5 °F /  16.4 °C 55.2 °F /  12.9 °C 30.1in /  1018.3hPa Calm     80% 0in /  0.0mm 93 W/m2
10:05 62.1 °F /  16.7 °C 55.8 °F /  13.2 °C 30.1in /  1018.3hPa ENE 2mph /  3.2km/h 2mph /  3.2km/h 80% 0in /  0.0mm 95 W/m2
10:10 62.4 °F /  16.9 °C 55.8 °F /  13.2 °C 30.1in /  1018.3hPa NE 0.9mph /  1.4km/h 2mph /  3.2km/h 79% 0in /  0.0mm 98 W/m2
10:15 63 °F /  17.2 °C 55.9 °F /  13.3 °C 30.1in /  1018.3hPa Calm   1mph /  1.6km/h 78% 0in /  0.0mm 100 W/m2
10:20 63.5 °F /  17.5 °C 56.5 °F /  13.6 °C 30.1in /  1018.6hPa ENE 2mph /  3.2km/h 3mph /  4.8km/h 78% 0in /  0.0mm 102 W/m2
10:25 63.7 °F /  17.6 °C 55.9 °F /  13.3 °C 30.1in /  1018.3hPa Calm   1mph /  1.6km/h 76% 0in /  0.0mm 104 W/m2
10:30 64 °F /  17.8 °C 56.3 °F /  13.5 °C 30.1in /  1018.3hPa Calm   1mph /  1.6km/h 76% 0in /  0.0mm 105 W/m2
10:35 64.6 °F /  18.1 °C 56.5 °F /  13.6 °C 30.1in /  1018.6hPa Calm   2mph /  3.2km/h 75% 0in /  0.0mm 105 W/m2
10:40 65.1 °F /  18.4 °C 57 °F /  13.9 °C 30.1in /  1018.6hPa Calm   2mph /  3.2km/h 75% 0in /  0.0mm 107 W/m2
10:45 65.7 °F /  18.7 °C 57.2 °F /  14 °C 30.1in /  1018.6hPa ENE 2mph /  3.2km/h 2mph /  3.2km/h 74% 0in /  0.0mm 109 W/m2
10:50 65.8 °F /  18.8 °C 57.4 °F /  14.1 °C 30.1in /  1018.6hPa East 0.9mph /  1.4km/h 2mph /  3.2km/h 74% 0in /  0.0mm 111 W/m2
10:55 66.4 °F /  19.1 °C 57.4 °F /  14.1 °C 30.1in /  1018.6hPa NE 2mph /  3.2km/h 4mph /  6.4km/h 73% 0in /  0.0mm 111 W/m2
11:00 66.7 °F /  19.3 °C 57 °F /  13.9 °C 30.1in /  1018.6hPa NE 2mph /  3.2km/h 4mph /  6.4km/h 71% 0in /  0.0mm 113 W/m2
11:05 66.9 °F /  19.4 °C 57.6 °F /  14.2 °C 30.1in /  1018.6hPa Calm   2mph /  3.2km/h 72% 0in /  0.0mm 118 W/m2
11:10 67.5 °F /  19.7 °C 57.7 °F /  14.3 °C 30.1in /  1018.6hPa NNE 0.9mph /  1.4km/h 2mph /  3.2km/h 71% 0in /  0.0mm 123 W/m2
11:15 67.6 °F /  19.8 °C 57.6 °F /  14.2 °C 30.1in /  1018.6hPa ENE 2mph /  3.2km/h 2mph /  3.2km/h 70% 0in /  0.0mm 142 W/m2
11:20 68.2 °F /  20.1 °C 57.6 °F /  14.2 °C 30.1in /  1018.6hPa ENE 0.9mph /  1.4km/h 3mph /  4.8km/h 69% 0in /  0.0mm 213 W/m2
11:25 68.7 °F /  20.4 °C 58.5 °F /  14.7 °C 30.1in /  1018.6hPa ENE 0.9mph /  1.4km/h 2mph /  3.2km/h 70% 0in /  0.0mm 190 W/m2
11:30 69.4 °F /  20.8 °C 58.8 °F /  14.9 °C 30.1in /  1018.6hPa ENE 0.9mph /  1.4km/h 4mph /  6.4km/h 69% 0in /  0.0mm 176 W/m2
11:35 70.2 °F /  21.2 °C 59.2 °F /  15.1 °C 30.1in /  1018.6hPa East 0.9mph /  1.4km/h 2mph /  3.2km/h 68% 0in /  0.0mm 153 W/m2
11:40 70.9 °F /  21.6 °C 59 °F /  15 °C 30.1in /  1018.6hPa SE 2mph /  3.2km/h 3mph /  4.8km/h 66% 0in /  0.0mm 234 W/m2
11:45 71.4 °F /  21.9 °C 58.6 °F /  14.8 °C 30.1in /  1018.6hPa East 0.9mph /  1.4km/h 2mph /  3.2km/h 64% 0in /  0.0mm 492 W/m2
11:50 72.1 °F /  22.3 °C 59.4 °F /  15.2 °C 30.1in /  1018.6hPa Calm   1mph /  1.6km/h 64% 0in /  0.0mm 508 W/m2
11:55 72.9 °F /  22.7 °C 59 °F /  15 °C 30.1in /  1018.6hPa Calm   2mph /  3.2km/h 62% 0in /  0.0mm 517 W/m2
12:00 73.4 °F /  23 °C 58.6 °F /  14.8 °C 30.1in /  1018.6hPa Calm     60% 0in /  0.0mm 529 W/m2
12:05 73.9 °F /  23.3 °C 57.2 °F /  14 °C 30.1in /  1018.6hPa NNW 2mph /  3.2km/h 3mph /  4.8km/h 56% 0in /  0.0mm 545 W/m2
12:10 74.7 °F /  23.7 °C 56.5 °F /  13.6 °C 30.1in /  1018.6hPa North 0.9mph /  1.4km/h 3mph /  4.8km/h 53% 0in /  0.0mm 559 W/m2
12:15 75 °F /  23.9 °C 56.1 °F /  13.4 °C 30.1in /  1018.3hPa Calm   4mph /  6.4km/h 52% 0in /  0.0mm 570 W/m2
12:20 75.4 °F /  24.1 °C 55.9 °F /  13.3 °C 30.1in /  1018.3hPa NE 2mph /  3.2km/h 3mph /  4.8km/h 51% 0in /  0.0mm 575 W/m2
12:25 76.3 °F /  24.6 °C 56.8 °F /  13.8 °C 30.1in /  1018.3hPa NW 2.9mph /  4.7km/h 4mph /  6.4km/h 51% 0in /  0.0mm 580 W/m2
12:30 76.8 °F /  24.9 °C 56.3 °F /  13.5 °C 30.1in /  1018.6hPa Calm   4mph /  6.4km/h 49% 0in /  0.0mm 585 W/m2
12:35 77.2 °F /  25.1 °C 55.9 °F /  13.3 °C 30.1in /  1018.6hPa Calm   5mph /  8km/h 48% 0in /  0.0mm 592 W/m2
12:40 77.5 °F /  25.3 °C 55.8 °F /  13.2 °C 30.1in /  1018.6hPa WNW 4.9mph /  7.9km/h 6mph /  9.7km/h 47% 0in /  0.0mm 601 W/m2
12:45 77.5 °F /  25.3 °C 55 °F /  12.8 °C 30.1in /  1018.3hPa NNE 2mph /  3.2km/h 7mph /  11.3km/h 46% 0in /  0.0mm 608 W/m2
12:51 77.7 °F /  25.4 °C 55.2 °F /  12.9 °C 30.1in /  1018.3hPa NW 0.9mph /  1.4km/h 2mph /  3.2km/h 46% 0in /  0.0mm 612 W/m2
12:56 78.1 °F /  25.6 °C 55.6 °F /  13.1 °C 30.1in /  1018.3hPa WNW 2mph /  3.2km/h 7mph /  11.3km/h 46% 0in /  0.0mm 619 W/m2
13:01 78.1 °F /  25.6 °C 55 °F /  12.8 °C 30.1in /  1018.3hPa West 2mph /  3.2km/h 4mph /  6.4km/h 45% 0in /  0.0mm 621 W/m2
13:06 78.3 °F /  25.7 °C 54.5 °F /  12.5 °C 30.1in /  1018.3hPa Calm   6mph /  9.7km/h 44% 0in /  0.0mm 621 W/m2
13:11 78.4 °F /  25.8 °C 54.7 °F /  12.6 °C 30.1in /  1018.3hPa West 2.9mph /  4.7km/h 7mph /  11.3km/h 44% 0in /  0.0mm 626 W/m2
13:16 78.4 °F /  25.8 °C 55.4 °F /  13 °C 30.1in /  1018.3hPa NNW 0.9mph /  1.4km/h 5mph /  8km/h 45% 0in /  0.0mm 635 W/m2
13:21 78.6 °F /  25.9 °C 54.9 °F /  12.7 °C 30.1in /  1018.3hPa WSW 2mph /  3.2km/h 2mph /  3.2km/h 44% 0in /  0.0mm 638 W/m2
13:26 79 °F /  26.1 °C 54.5 °F /  12.5 °C 30.1in /  1018.3hPa WSW 2.9mph /  4.7km/h 9mph /  14.5km/h 43% 0in /  0.0mm 642 W/m2
13:31 79 °F /  26.1 °C 54.5 °F /  12.5 °C 30.1in /  1018.3hPa NW 2.9mph /  4.7km/h 9mph /  14.5km/h 43% 0in /  0.0mm 647 W/m2
13:36 79.2 °F /  26.2 °C 55.4 °F /  13 °C 30.1in /  1018.3hPa West 4mph /  6.4km/h 9mph /  14.5km/h 44% 0in /  0.0mm 645 W/m2
13:41 79.3 °F /  26.3 °C 54.9 °F /  12.7 °C 30.1in /  1018.3hPa ESE 0.9mph /  1.4km/h 4mph /  6.4km/h 43% 0in /  0.0mm 649 W/m2
13:46 79.5 °F /  26.4 °C 55 °F /  12.8 °C 30.1in /  1018.3hPa NW 6mph /  9.7km/h 8mph /  12.9km/h 43% 0in /  0.0mm 649 W/m2
13:51 79.5 °F /  26.4 °C 54.5 °F /  12.5 °C 30.1in /  1018.6hPa WNW 2mph /  3.2km/h 8mph /  12.9km/h 42% 0in /  0.0mm 654 W/m2
13:56 79.5 °F /  26.4 °C 55 °F /  12.8 °C 30.1in /  1018.6hPa North 2.9mph /  4.7km/h 8mph /  12.9km/h 43% 0in /  0.0mm 647 W/m2
14:01 79.5 °F /  26.4 °C 54.5 °F /  12.5 °C 30.1in /  1018.6hPa WNW 2.9mph /  4.7km/h 10mph /  16.1km/h 42% 0in /  0.0mm 645 W/m2
14:06 79.3 °F /  26.3 °C 54.9 °F /  12.7 °C 30.1in /  1018.6hPa SW 2.9mph /  4.7km/h 8mph /  12.9km/h 43% 0in /  0.0mm 636 W/m2
14:11 79.5 °F /  26.4 °C 55 °F /  12.8 °C 30.1in /  1018.6hPa West 2.9mph /  4.7km/h 4mph /  6.4km/h 43% 0in /  0.0mm 633 W/m2
14:16 79.5 °F /  26.4 °C 55 °F /  12.8 °C 30.1in /  1018.6hPa WNW 2.9mph /  4.7km/h 6mph /  9.7km/h 43% 0in /  0.0mm 631 W/m2
14:21 79.9 °F /  26.6 °C 55.4 °F /  13 °C 30.1in /  1018.6hPa WSW 2.9mph /  4.7km/h 7mph /  11.3km/h 43% 0in /  0.0mm 628 W/m2
14:26 79.9 °F /  26.6 °C 55.9 °F /  13.3 °C 30.1in /  1018.6hPa West 6mph /  9.7km/h 6mph /  9.7km/h 44% 0in /  0.0mm 617 W/m2
14:31 80.2 °F /  26.8 °C 56.3 °F /  13.5 °C 30.1in /  1018.6hPa SW 2mph /  3.2km/h 5mph /  8km/h 44% 0in /  0.0mm 619 W/m2
14:36 80.2 °F /  26.8 °C 55.8 °F /  13.2 °C 30.1in /  1018.6hPa West 0.9mph /  1.4km/h 4mph /  6.4km/h 43% 0in /  0.0mm 613 W/m2
14:41 80.1 °F /  26.7 °C 55.6 °F /  13.1 °C 30.1in /  1018.6hPa Calm   7mph /  11.3km/h 43% 0in /  0.0mm 612 W/m2
14:46 80.2 °F /  26.8 °C 55.8 °F /  13.2 °C 30.1in /  1018.6hPa WSW 4mph /  6.4km/h 7mph /  11.3km/h 43% 0in /  0.0mm 610 W/m2
14:51 80.2 °F /  26.8 °C 55.8 °F /  13.2 °C 30.1in /  1018.6hPa West 2.9mph /  4.7km/h 5mph /  8km/h 43% 0in /  0.0mm 608 W/m2
14:56 80.2 °F /  26.8 °C 55 °F /  12.8 °C 30.1in /  1018.6hPa NW 0.9mph /  1.4km/h 7mph /  11.3km/h 42% 0in /  0.0mm 605 W/m2
15:01 80.2 °F /  26.8 °C 55.8 °F /  13.2 °C 30.1in /  1018.6hPa NW 4.9mph /  7.9km/h 5mph /  8km/h 43% 0in /  0.0mm 599 W/m2
15:06 80.4 °F /  26.9 °C 55.2 °F /  12.9 °C 30.1in /  1018.6hPa South 2mph /  3.2km/h 11mph /  17.7km/h 42% 0in /  0.0mm 592 W/m2
15:11 80.8 °F /  27.1 °C 55.6 °F /  13.1 °C 30.1in /  1018.6hPa WSW 2mph /  3.2km/h 2mph /  3.2km/h 42% 0in /  0.0mm 585 W/m2
15:16 80.6 °F /  27 °C 55.4 °F /  13 °C 30.1in /  1018.6hPa West 0.9mph /  1.4km/h 9mph /  14.5km/h 42% 0in /  0.0mm 577 W/m2
15:21 80.8 °F /  27.1 °C 56.1 °F /  13.4 °C 30.1in /  1018.6hPa West 4mph /  6.4km/h 8mph /  12.9km/h 43% 0in /  0.0mm 570 W/m2
15:26 80.8 °F /  27.1 °C 56.1 °F /  13.4 °C 30.1in /  1018.6hPa WSW 2.9mph /  4.7km/h 9mph /  14.5km/h 43% 0in /  0.0mm 564 W/m2
15:31 80.8 °F /  27.1 °C 55.6 °F /  13.1 °C 30.1in /  1018.6hPa West 2.9mph /  4.7km/h 4mph /  6.4km/h 42% 0in /  0.0mm 561 W/m2
15:36 80.8 °F /  27.1 °C 55.6 °F /  13.1 °C 30.1in /  1018.6hPa SW 2mph /  3.2km/h 5mph /  8km/h 42% 0in /  0.0mm 552 W/m2
15:41 80.8 °F /  27.1 °C 55.6 °F /  13.1 °C 30.1in /  1018.6hPa NW 11mph /  17.7km/h 11mph /  17.7km/h 42% 0in /  0.0mm 548 W/m2
15:46 80.4 °F /  26.9 °C 55.9 °F /  13.3 °C 30.1in /  1018.6hPa WNW 4mph /  6.4km/h 7mph /  11.3km/h 43% 0in /  0.0mm 543 W/m2
15:51 80.2 °F /  26.8 °C 56.3 °F /  13.5 °C 30.1in /  1018.6hPa SW 6.9mph /  11.1km/h 9mph /  14.5km/h 44% 0in /  0.0mm 540 W/m2
15:56 80.2 °F /  26.8 °C 56.3 °F /  13.5 °C 30.1in /  1018.6hPa WNW 2mph /  3.2km/h 4mph /  6.4km/h 44% 0in /  0.0mm 531 W/m2
16:01 80.4 °F /  26.9 °C 57.2 °F /  14 °C 30.1in /  1018.6hPa SW 4mph /  6.4km/h 4mph /  6.4km/h 45% 0in /  0.0mm 522 W/m2
16:06 80.4 °F /  26.9 °C 56.5 °F /  13.6 °C 30.1in /  1018.6hPa West 2.9mph /  4.7km/h 8mph /  12.9km/h 44% 0in /  0.0mm 504 W/m2
16:11 80.8 °F /  27.1 °C 57.4 °F /  14.1 °C 30.1in /  1018.3hPa West 6mph /  9.7km/h 6mph /  9.7km/h 45% 0in /  0.0mm 492 W/m2
16:16 80.8 °F /  27.1 °C 56.8 °F /  13.8 °C 30.1in /  1018.3hPa WNW 8.1mph /  13km/h 11mph /  17.7km/h 44% 0in /  0.0mm 487 W/m2
16:21 80.8 °F /  27.1 °C 56.8 °F /  13.8 °C 30.1in /  1018.3hPa West 8.1mph /  13km/h 11mph /  17.7km/h 44% 0in /  0.0mm 478 W/m2
16:26 80.4 °F /  26.9 °C 57.2 °F /  14 °C 30.1in /  1018.3hPa WNW 4.9mph /  7.9km/h 9mph /  14.5km/h 45% 0in /  0.0mm 469 W/m2
16:31 80.2 °F /  26.8 °C 57 °F /  13.9 °C 30.1in /  1018.3hPa WNW 2.9mph /  4.7km/h 11mph /  17.7km/h 45% 0in /  0.0mm 455 W/m2
16:36 80.2 °F /  26.8 °C 57 °F /  13.9 °C 30.1in /  1018.3hPa WSW 4mph /  6.4km/h 6mph /  9.7km/h 45% 0in /  0.0mm 441 W/m2
16:41 80.4 °F /  26.9 °C 57.2 °F /  14 °C 30.1in /  1018.3hPa West 6mph /  9.7km/h 11mph /  17.7km/h 45% 0in /  0.0mm 432 W/m2
16:46 80.4 °F /  26.9 °C 57.7 °F /  14.3 °C 30.1in /  1018.3hPa West 2.9mph /  4.7km/h 6mph /  9.7km/h 46% 0in /  0.0mm 418 W/m2
16:51 80.4 °F /  26.9 °C 57.2 °F /  14 °C 30.1in /  1018.3hPa NNW 2.9mph /  4.7km/h 5mph /  8km/h 45% 0in /  0.0mm 410 W/m2
16:56 80.4 °F /  26.9 °C 57.7 °F /  14.3 °C 30.1in /  1018.3hPa West 4mph /  6.4km/h 5mph /  8km/h 46% 0in /  0.0mm 390 W/m2
17:01 80.4 °F /  26.9 °C 57.7 °F /  14.3 °C 30.1in /  1018.3hPa West 2.9mph /  4.7km/h 5mph /  8km/h 46% 0in /  0.0mm 385 W/m2
17:06 80.4 °F /  26.9 °C 57.7 °F /  14.3 °C 30.1in /  1018.3hPa West 2mph /  3.2km/h 3mph /  4.8km/h 46% 0in /  0.0mm 376 W/m2
17:11 80.4 °F /  26.9 °C 57.2 °F /  14 °C 30.1in /  1018.6hPa West 6mph /  9.7km/h 7mph /  11.3km/h 45% 0in /  0.0mm 355 W/m2
17:16 80.2 °F /  26.8 °C 58.1 °F /  14.5 °C 30.1in /  1018.3hPa West 6.9mph /  11.1km/h 9mph /  14.5km/h 47% 0in /  0.0mm 353 W/m2
17:21 80.1 °F /  26.7 °C 57.4 °F /  14.1 °C 30.1in /  1018.6hPa WNW 4mph /  6.4km/h 9mph /  14.5km/h 46% 0in /  0.0mm 346 W/m2
17:26 80.1 °F /  26.7 °C 57.4 °F /  14.1 °C 30.1in /  1018.6hPa WNW 6mph /  9.7km/h 9mph /  14.5km/h 46% 0in /  0.0mm 329 W/m2
17:31 80.1 °F /  26.7 °C 58.1 °F /  14.5 °C 30.1in /  1018.6hPa West 2.9mph /  4.7km/h 5mph /  8km/h 47% 0in /  0.0mm 323 W/m2
17:36 79.9 °F /  26.6 °C 57.9 °F /  14.4 °C 30.1in /  1018.6hPa West 6mph /  9.7km/h 8mph /  12.9km/h 47% 0in /  0.0mm 315 W/m2
17:42 79.5 °F /  26.4 °C 57.6 °F /  14.2 °C 30.1in /  1018.6hPa NNW 10.1mph /  16.3km/h 10mph /  16.1km/h 47% 0in /  0.0mm 308 W/m2
17:47 79.5 °F /  26.4 °C 58.1 °F /  14.5 °C 30.1in /  1019.0hPa West 4mph /  6.4km/h 8mph /  12.9km/h 48% 0in /  0.0mm 292 W/m2
17:52 79.3 °F /  26.3 °C 57.9 °F /  14.4 °C 30.1in /  1019.0hPa West 2mph /  3.2km/h 4mph /  6.4km/h 48% 0in /  0.0mm 281 W/m2
17:57 79.3 °F /  26.3 °C 57.4 °F /  14.1 °C 30.1in /  1019.0hPa WNW 6.9mph /  11.1km/h 9mph /  14.5km/h 47% 0in /  0.0mm 264 W/m2
18:02 79.2 °F /  26.2 °C 57.7 °F /  14.3 °C 30.1in /  1019.0hPa West 4mph /  6.4km/h 6mph /  9.7km/h 48% 0in /  0.0mm 250 W/m2
18:07 79.2 °F /  26.2 °C 58.3 °F /  14.6 °C 30.1in /  1019.0hPa WSW 4mph /  6.4km/h 7mph /  11.3km/h 49% 0in /  0.0mm 243 W/m2
18:12 79 °F /  26.1 °C 57.6 °F /  14.2 °C 30.1in /  1019.0hPa West 2.9mph /  4.7km/h 6mph /  9.7km/h 48% 0in /  0.0mm 237 W/m2
18:17 78.8 °F /  26 °C 58.1 °F /  14.5 °C 30.1in /  1019.0hPa NW 2.9mph /  4.7km/h 7mph /  11.3km/h 49% 0in /  0.0mm 227 W/m2
18:22 78.4 °F /  25.8 °C 58.3 °F /  14.6 °C 30.1in /  1019.0hPa WNW 8.1mph /  13km/h 9mph /  14.5km/h 50% 0in /  0.0mm 218 W/m2
18:27 78.3 °F /  25.7 °C 58.1 °F /  14.5 °C 30.1in /  1019.0hPa WSW 2mph /  3.2km/h 4mph /  6.4km/h 50% 0in /  0.0mm 209 W/m2
18:32 78.1 °F /  25.6 °C 57.9 °F /  14.4 °C 30.1in /  1019.0hPa West 2mph /  3.2km/h 9mph /  14.5km/h 50% 0in /  0.0mm 195 W/m2
18:37 77.9 °F /  25.5 °C 58.3 °F /  14.6 °C 30.1in /  1019.0hPa WNW 2.9mph /  4.7km/h 5mph /  8km/h 51% 0in /  0.0mm 169 W/m2
18:42 77.7 °F /  25.4 °C 58.1 °F /  14.5 °C 30.1in /  1019.0hPa WNW 4.9mph /  7.9km/h 8mph /  12.9km/h 51% 0in /  0.0mm 160 W/m2
18:47 77.5 °F /  25.3 °C 57.9 °F /  14.4 °C 30.1in /  1019.3hPa WSW 6.9mph /  11.1km/h 10mph /  16.1km/h 51% 0in /  0.0mm 141 W/m2
18:52 77.2 °F /  25.1 °C 57.7 °F /  14.3 °C 30.1in /  1019.3hPa WSW 4mph /  6.4km/h 7mph /  11.3km/h 51% 0in /  0.0mm 123 W/m2
18:57 76.6 °F /  24.8 °C 57.7 °F /  14.3 °C 30.1in /  1019.3hPa West 2.9mph /  4.7km/h 10mph /  16.1km/h 52% 0in /  0.0mm 109 W/m2
19:02 76.3 °F /  24.6 °C 57.4 °F /  14.1 °C 30.1in /  1019.3hPa West 2.9mph /  4.7km/h 10mph /  16.1km/h 52% 0in /  0.0mm 97 W/m2
19:07 75.7 °F /  24.3 °C 57.4 °F /  14.1 °C 30.1in /  1019.3hPa West 2.9mph /  4.7km/h 7mph /  11.3km/h 53% 0in /  0.0mm 33 W/m2
19:12 75.4 °F /  24.1 °C 57 °F /  13.9 °C 30.1in /  1019.6hPa WNW 2.9mph /  4.7km/h 4mph /  6.4km/h 53% 0in /  0.0mm 28 W/m2
19:17 74.8 °F /  23.8 °C 57 °F /  13.9 °C 30.1in /  1019.6hPa West 2mph /  3.2km/h 6mph /  9.7km/h 54% 0in /  0.0mm 26 W/m2
19:22 74.5 °F /  23.6 °C 56.7 °F /  13.7 °C 30.1in /  1019.6hPa WNW 2mph /  3.2km/h 3mph /  4.8km/h 54% 0in /  0.0mm 23 W/m2
19:27 73.9 °F /  23.3 °C 56.8 °F /  13.8 °C 30.1in /  1019.6hPa West 2mph /  3.2km/h 2mph /  3.2km/h 55% 0in /  0.0mm 21 W/m2
19:33 73.6 °F /  23.1 °C 56.8 °F /  13.8 °C 30.1in /  1019.6hPa West 2mph /  3.2km/h 3mph /  4.8km/h 56% 0in /  0.0mm 18 W/m2
19:38 73 °F /  22.8 °C 56.5 °F /  13.6 °C 30.1in /  1019.6hPa WSW 2.9mph /  4.7km/h 4mph /  6.4km/h 56% 0in /  0.0mm 14 W/m2
19:43 72.5 °F /  22.5 °C 56.5 °F /  13.6 °C 30.1in /  1019.6hPa WSW 2.9mph /  4.7km/h 5mph /  8km/h 57% 0in /  0.0mm 11 W/m2
19:48 72.3 °F /  22.4 °C 56.3 °F /  13.5 °C 30.1in /  1020.0hPa West 2mph /  3.2km/h 3mph /  4.8km/h 57% 0in /  0.0mm 7 W/m2
19:53 72 °F /  22.2 °C 56.3 °F /  13.5 °C 30.1in /  1020.0hPa WSW 2mph /  3.2km/h 4mph /  6.4km/h 58% 0in /  0.0mm 0 W/m2
19:58 71.6 °F /  22 °C 56.1 °F /  13.4 °C 30.1in /  1020.0hPa West 2.9mph /  4.7km/h 4mph /  6.4km/h 58% 0in /  0.0mm 0 W/m2
20:03 71.2 °F /  21.8 °C 55.8 °F /  13.2 °C 30.1in /  1020.0hPa West 2mph /  3.2km/h 4mph /  6.4km/h 58% 0in /  0.0mm 0 W/m2
20:08 71.2 °F /  21.8 °C 56.1 °F /  13.4 °C 30.1in /  1020.0hPa West 2mph /  3.2km/h 3mph /  4.8km/h 59% 0in /  0.0mm 0 W/m2
20:13 70.9 °F /  21.6 °C 55.8 °F /  13.2 °C 30.1in /  1020.0hPa West 6mph /  9.7km/h 6mph /  9.7km/h 59% 0in /  0.0mm 0 W/m2
20:18 70.5 °F /  21.4 °C 55.6 °F /  13.1 °C 30.1in /  1020.0hPa West 2.9mph /  4.7km/h 5mph /  8km/h 59% 0in /  0.0mm 0 W/m2
20:23 70.3 °F /  21.3 °C 55.8 °F /  13.2 °C 30.1in /  1020.3hPa WNW 6mph /  9.7km/h 6mph /  9.7km/h 60% 0in /  0.0mm 0 W/m2
20:28 70.2 °F /  21.2 °C 55.6 °F /  13.1 °C 30.1in /  1020.3hPa West 2.9mph /  4.7km/h 4mph /  6.4km/h 60% 0in /  0.0mm 0 W/m2
20:33 70 °F /  21.1 °C 55.4 °F /  13 °C 30.1in /  1020.3hPa WSW 4mph /  6.4km/h 4mph /  6.4km/h 60% 0in /  0.0mm 0 W/m2
20:38 69.6 °F /  20.9 °C 55.6 °F /  13.1 °C 30.1in /  1020.3hPa SW 2.9mph /  4.7km/h 4mph /  6.4km/h 61% 0in /  0.0mm 0 W/m2
20:43 69.4 °F /  20.8 °C 55.4 °F /  13 °C 30.1in /  1020.3hPa WNW 2.9mph /  4.7km/h 6mph /  9.7km/h 61% 0in /  0.0mm 0 W/m2
20:48 69.3 °F /  20.7 °C 55.2 °F /  12.9 °C 30.1in /  1020.3hPa West 6.9mph /  11.1km/h 8mph /  12.9km/h 61% 0in /  0.0mm 0 W/m2
20:53 69.1 °F /  20.6 °C 55 °F /  12.8 °C 30.1in /  1020.7hPa West 6mph /  9.7km/h 7mph /  11.3km/h 61% 0in /  0.0mm 0 W/m2
20:58 68.9 °F /  20.5 °C 54.9 °F /  12.7 °C 30.1in /  1020.7hPa WNW 4mph /  6.4km/h 6mph /  9.7km/h 61% 0in /  0.0mm 0 W/m2
21:03 68.7 °F /  20.4 °C 54.7 °F /  12.6 °C 30.1in /  1020.7hPa West 2mph /  3.2km/h 9mph /  14.5km/h 61% 0in /  0.0mm 0 W/m2
21:08 68.5 °F /  20.3 °C 54.5 °F /  12.5 °C 30.1in /  1020.7hPa WSW 2.9mph /  4.7km/h 6mph /  9.7km/h 61% 0in /  0.0mm 0 W/m2
21:13 68.4 °F /  20.2 °C 54.3 °F /  12.4 °C 30.1in /  1020.7hPa WNW 2mph /  3.2km/h 5mph /  8km/h 61% 0in /  0.0mm 0 W/m2
21:18 68.2 °F /  20.1 °C 53.8 °F /  12.1 °C 30.1in /  1020.7hPa West 0.9mph /  1.4km/h 12mph /  19.3km/h 60% 0in /  0.0mm 0 W/m2
21:23 67.8 °F /  19.9 °C 53.4 °F /  11.9 °C 30.2in /  1021.0hPa West 4mph /  6.4km/h 6mph /  9.7km/h 60% 0in /  0.0mm 0 W/m2
21:28 67.6 °F /  19.8 °C 53.2 °F /  11.8 °C 30.2in /  1021.0hPa West 4mph /  6.4km/h 7mph /  11.3km/h 60% 0in /  0.0mm 0 W/m2
21:33 67.5 °F /  19.7 °C 53.1 °F /  11.7 °C 30.2in /  1021.0hPa West 4mph /  6.4km/h 4mph /  6.4km/h 60% 0in /  0.0mm 0 W/m2
21:38 67.1 °F /  19.5 °C 52.3 °F /  11.3 °C 30.2in /  1021.0hPa West 2.9mph /  4.7km/h 5mph /  8km/h 59% 0in /  0.0mm 0 W/m2
21:43 66.9 °F /  19.4 °C 52.2 °F /  11.2 °C 30.2in /  1021.3hPa WSW 4.9mph /  7.9km/h 7mph /  11.3km/h 59% 0in /  0.0mm 0 W/m2
21:48 66.9 °F /  19.4 °C 52.2 °F /  11.2 °C 30.2in /  1021.3hPa WSW 2.9mph /  4.7km/h 6mph /  9.7km/h 59% 0in /  0.0mm 0 W/m2
21:53 66.9 °F /  19.4 °C 52.2 °F /  11.2 °C 30.2in /  1021.3hPa West 6mph /  9.7km/h 9mph /  14.5km/h 59% 0in /  0.0mm 0 W/m2
21:58 66.7 °F /  19.3 °C 52 °F /  11.1 °C 30.2in /  1021.3hPa NW 0.9mph /  1.4km/h 7mph /  11.3km/h 59% 0in /  0.0mm 0 W/m2
22:03 66.7 °F /  19.3 °C 52 °F /  11.1 °C 30.2in /  1021.3hPa WNW 4.9mph /  7.9km/h 7mph /  11.3km/h 59% 0in /  0.0mm 0 W/m2
22:08 66.7 °F /  19.3 °C 52 °F /  11.1 °C 30.2in /  1021.7hPa West 4mph /  6.4km/h 4mph /  6.4km/h 59% 0in /  0.0mm 0 W/m2
22:13 66.4 °F /  19.1 °C 51.6 °F /  10.9 °C 30.2in /  1021.7hPa West 2.9mph /  4.7km/h 6mph /  9.7km/h 59% 0in /  0.0mm 0 W/m2
22:18 66 °F /  18.9 °C 51.3 °F /  10.7 °C 30.2in /  1021.7hPa WSW 2.9mph /  4.7km/h 9mph /  14.5km/h 59% 0in /  0.0mm 0 W/m2
22:23 65.8 °F /  18.8 °C 51.6 °F /  10.9 °C 30.2in /  1021.7hPa West 2mph /  3.2km/h 7mph /  11.3km/h 60% 0in /  0.0mm 0 W/m2
22:28 65.7 °F /  18.7 °C 51.4 °F /  10.8 °C 30.2in /  1021.7hPa WSW 2.9mph /  4.7km/h 5mph /  8km/h 60% 0in /  0.0mm 0 W/m2
22:33 65.5 °F /  18.6 °C 51.3 °F /  10.7 °C 30.2in /  1021.7hPa WSW 2mph /  3.2km/h 5mph /  8km/h 60% 0in /  0.0mm 0 W/m2
22:38 65.5 °F /  18.6 °C 51.6 °F /  10.9 °C 30.2in /  1022.0hPa WNW 2mph /  3.2km/h 3mph /  4.8km/h 61% 0in /  0.0mm 0 W/m2
22:43 65.1 °F /  18.4 °C 51.3 °F /  10.7 °C 30.2in /  1022.0hPa WNW 0.9mph /  1.4km/h 6mph /  9.7km/h 61% 0in /  0.0mm 0 W/m2
22:48 64.9 °F /  18.3 °C 51.1 °F /  10.6 °C 30.2in /  1022.0hPa WSW 4.9mph /  7.9km/h 6mph /  9.7km/h 61% 0in /  0.0mm 0 W/m2
22:54 64.8 °F /  18.2 °C 51.4 °F /  10.8 °C 30.2in /  1022.0hPa WSW 6mph /  9.7km/h 6mph /  9.7km/h 62% 0in /  0.0mm 0 W/m2
22:59 64.8 °F /  18.2 °C 51.4 °F /  10.8 °C 30.2in /  1022.0hPa WNW 2mph /  3.2km/h 4mph /  6.4km/h 62% 0in /  0.0mm 0 W/m2
23:04 64.8 °F /  18.2 °C 51.4 °F /  10.8 °C 30.2in /  1022.0hPa WNW 0.9mph /  1.4km/h 3mph /  4.8km/h 62% 0in /  0.0mm 0 W/m2
23:09 64.8 °F /  18.2 °C 51.4 °F /  10.8 °C 30.2in /  1022.0hPa WNW 0.9mph /  1.4km/h 3mph /  4.8km/h 62% 0in /  0.0mm 0 W/m2
23:14 64.6 °F /  18.1 °C 51.3 °F /  10.7 °C 30.2in /  1022.0hPa West 2.9mph /  4.7km/h 4mph /  6.4km/h 62% 0in /  0.0mm 0 W/m2
23:19 64.6 °F /  18.1 °C 51.3 °F /  10.7 °C 30.2in /  1022.4hPa West 2mph /  3.2km/h 6mph /  9.7km/h 62% 0in /  0.0mm 0 W/m2
23:24 64.4 °F /  18 °C 51.1 °F /  10.6 °C 30.2in /  1022.4hPa WSW 2.9mph /  4.7km/h 4mph /  6.4km/h 62% 0in /  0.0mm 0 W/m2
23:29 64.2 °F /  17.9 °C 51.4 °F /  10.8 °C 30.2in /  1022.4hPa West 4mph /  6.4km/h 7mph /  11.3km/h 63% 0in /  0.0mm 0 W/m2
23:34 64 °F /  17.8 °C 51.3 °F /  10.7 °C 30.2in /  1022.4hPa West 2mph /  3.2km/h 3mph /  4.8km/h 63% 0in /  0.0mm 0 W/m2
23:39 63.9 °F /  17.7 °C 51.4 °F /  10.8 °C 30.2in /  1022.4hPa West 2mph /  3.2km/h 3mph /  4.8km/h 64% 0in /  0.0mm 0 W/m2
23:44 63.5 °F /  17.5 °C 51.1 °F /  10.6 °C 30.2in /  1022.4hPa WNW 2mph /  3.2km/h 2mph /  3.2km/h 64% 0in /  0.0mm 0 W/m2
23:49 63.1 °F /  17.3 °C 51.3 °F /  10.7 °C 30.2in /  1022.4hPa West 0.9mph /  1.4km/h 3mph /  4.8km/h 65% 0in /  0.0mm 0 W/m2
23:54 62.8 °F /  17.1 °C 51.3 °F /  10.7 °C 30.2in /  1022.4hPa WSW 2.9mph /  4.7km/h 4mph /  6.4km/h 66% 0in /  0.0mm 0 W/m2
23:59 62.6 °F /  17 °C 51.1 °F /  10.6 °C 30.2in /  1022.4hPa WSW 2mph /  3.2km/h 4mph /  6.4km/h 66% 0in /  0.0mm 0 W/m2
Juneau County Weather
Compliments of Weather Underground - 4 mb